sensor_id;sensor_type;location;lat;lon;timestamp;pressure;altitude;pressure_sealevel;temperature;humidity
58843;BME280;44614;54.356;10.100;2023-08-12T00:01:30;101486.31;;;19.62;83.57
58843;BME280;44614;54.356;10.100;2023-08-12T00:03:55;101489.31;;;19.60;83.69
58843;BME280;44614;54.356;10.100;2023-08-12T00:06:20;101489.31;;;19.60;83.56
58843;BME280;44614;54.356;10.100;2023-08-12T00:08:46;101477.63;;;19.58;83.60
58843;BME280;44614;54.356;10.100;2023-08-12T00:11:11;101481.47;;;19.57;82.99
58843;BME280;44614;54.356;10.100;2023-08-12T00:13:36;101485.38;;;19.56;83.82
58843;BME280;44614;54.356;10.100;2023-08-12T00:16:02;101484.84;;;19.54;83.58
58843;BME280;44614;54.356;10.100;2023-08-12T00:18:27;101478.44;;;19.54;84.00
58843;BME280;44614;54.356;10.100;2023-08-12T00:20:53;101487.03;;;19.52;83.50
58843;BME280;44614;54.356;10.100;2023-08-12T00:23:20;101491.75;;;19.52;83.60
58843;BME280;44614;54.356;10.100;2023-08-12T00:25:45;101500.97;;;19.52;84.09
58843;BME280;44614;54.356;10.100;2023-08-12T00:28:11;101499.84;;;19.53;83.84
58843;BME280;44614;54.356;10.100;2023-08-12T00:30:37;101515.47;;;19.54;83.24
58843;BME280;44614;54.356;10.100;2023-08-12T00:33:03;101518.50;;;19.53;83.51
58843;BME280;44614;54.356;10.100;2023-08-12T00:35:28;101525.78;;;19.54;83.49
58843;BME280;44614;54.356;10.100;2023-08-12T00:37:54;101536.06;;;19.53;83.59
58843;BME280;44614;54.356;10.100;2023-08-12T00:40:19;101536.63;;;19.50;84.53
58843;BME280;44614;54.356;10.100;2023-08-12T00:42:45;101534.34;;;19.47;84.53
58843;BME280;44614;54.356;10.100;2023-08-12T00:45:12;101546.84;;;19.44;84.74
58843;BME280;44614;54.356;10.100;2023-08-12T00:47:38;101539.63;;;19.43;84.92
58843;BME280;44614;54.356;10.100;2023-08-12T00:50:05;101543.22;;;19.44;85.12
58843;BME280;44614;54.356;10.100;2023-08-12T00:52:31;101545.44;;;19.42;85.07
58843;BME280;44614;54.356;10.100;2023-08-12T00:54:56;101543.19;;;19.39;85.43
58843;BME280;44614;54.356;10.100;2023-08-12T00:57:22;101538.72;;;19.38;85.73
58843;BME280;44614;54.356;10.100;2023-08-12T00:59:49;101509.66;;;19.23;85.51
58843;BME280;44614;54.356;10.100;2023-08-12T01:02:14;101483.91;;;19.11;85.71
58843;BME280;44614;54.356;10.100;2023-08-12T01:04:39;101518.66;;;19.36;86.34
58843;BME280;44614;54.356;10.100;2023-08-12T01:07:05;101508.03;;;19.33;86.63
58843;BME280;44614;54.356;10.100;2023-08-12T01:09:31;101502.47;;;19.33;86.38
58843;BME280;44614;54.356;10.100;2023-08-12T01:12:21;101495.78;;;19.34;86.08
58843;BME280;44614;54.356;10.100;2023-08-12T01:17:23;101489.38;;;19.33;86.13
58843;BME280;44614;54.356;10.100;2023-08-12T01:19:50;101489.38;;;19.33;86.12
58843;BME280;44614;54.356;10.100;2023-08-12T01:22:20;101491.34;;;19.33;86.11
58843;BME280;44614;54.356;10.100;2023-08-12T01:24:46;101490.50;;;19.32;86.66
58843;BME280;44614;54.356;10.100;2023-08-12T01:27:12;101489.66;;;19.32;86.37
58843;BME280;44614;54.356;10.100;2023-08-12T01:29:41;101495.25;;;19.32;86.31
58843;BME280;44614;54.356;10.100;2023-08-12T01:32:12;101487.97;;;19.31;86.25
58843;BME280;44614;54.356;10.100;2023-08-12T01:37:28;101462.75;;;19.10;87.36
58843;BME280;44614;54.356;10.100;2023-08-12T01:39:55;101478.72;;;19.20;87.86
58843;BME280;44614;54.356;10.100;2023-08-12T01:42:22;101480.38;;;19.21;87.60
58843;BME280;44614;54.356;10.100;2023-08-12T01:44:48;101441.50;;;18.99;88.08
58843;BME280;44614;54.356;10.100;2023-08-12T01:47:13;101435.94;;;18.99;88.45
58843;BME280;44614;54.356;10.100;2023-08-12T01:49:38;101458.31;;;19.14;88.57
58843;BME280;44614;54.356;10.100;2023-08-12T01:52:04;101461.09;;;19.14;88.27
58843;BME280;44614;54.356;10.100;2023-08-12T01:54:30;101451.09;;;19.13;88.55
58843;BME280;44614;54.356;10.100;2023-08-12T01:57:02;101450.50;;;19.11;88.88
58843;BME280;44614;54.356;10.100;2023-08-12T01:59:27;101436.53;;;19.06;89.31
58843;BME280;44614;54.356;10.100;2023-08-12T02:01:53;101423.16;;;19.03;89.70
58843;BME280;44614;54.356;10.100;2023-08-12T02:04:18;101418.97;;;19.01;90.42
58843;BME280;44614;54.356;10.100;2023-08-12T02:06:44;101427.31;;;19.01;90.39
58843;BME280;44614;54.356;10.100;2023-08-12T02:09:09;101441.81;;;19.03;89.82
58843;BME280;44614;54.356;10.100;2023-08-12T02:11:34;101454.59;;;19.04;89.54
58843;BME280;44614;54.356;10.100;2023-08-12T02:14:00;101450.75;;;19.05;89.23
58843;BME280;44614;54.356;10.100;2023-08-12T02:16:25;101447.13;;;19.04;89.18
58843;BME280;44614;54.356;10.100;2023-08-12T02:18:51;101434.56;;;19.02;89.69
58843;BME280;44614;54.356;10.100;2023-08-12T02:21:16;101440.97;;;19.02;90.85
58843;BME280;44614;54.356;10.100;2023-08-12T02:23:41;101435.09;;;18.98;91.33
58843;BME280;44614;54.356;10.100;2023-08-12T02:26:10;101433.66;;;18.96;91.23
58843;BME280;44614;54.356;10.100;2023-08-12T02:28:35;101338.47;;;18.35;91.57
58843;BME280;44614;54.356;10.100;2023-08-12T02:31:01;101421.66;;;18.90;92.38
58843;BME280;44614;54.356;10.100;2023-08-12T02:33:27;101417.44;;;18.88;92.20
58843;BME280;44614;54.356;10.100;2023-08-12T02:35:54;101422.78;;;18.89;91.65
58843;BME280;44614;54.356;10.100;2023-08-12T02:38:20;101403.47;;;18.78;91.27
58843;BME280;44614;54.356;10.100;2023-08-12T02:40:50;101419.69;;;18.86;90.75
58843;BME280;44614;54.356;10.100;2023-08-12T02:43:16;101428.59;;;18.88;90.99
58843;BME280;44614;54.356;10.100;2023-08-12T02:45:42;101430.22;;;18.84;91.64
58843;BME280;44614;54.356;10.100;2023-08-12T02:48:09;101422.94;;;18.78;92.71
58843;BME280;44614;54.356;10.100;2023-08-12T02:50:35;101431.22;;;18.72;93.02
58843;BME280;44614;54.356;10.100;2023-08-12T02:53:00;101429.78;;;18.70;93.01
58843;BME280;44614;54.356;10.100;2023-08-12T02:55:26;101424.47;;;18.68;92.98
58843;BME280;44614;54.356;10.100;2023-08-12T02:57:51;101427.25;;;18.68;92.68
58843;BME280;44614;54.356;10.100;2023-08-12T03:00:17;101444.78;;;18.69;92.46
58843;BME280;44614;54.356;10.100;2023-08-12T03:02:43;101448.97;;;18.66;92.30
58843;BME280;44614;54.356;10.100;2023-08-12T03:05:09;101424.38;;;18.58;92.77
58843;BME280;44614;54.356;10.100;2023-08-12T03:07:34;101457.81;;;18.63;92.80
58843;BME280;44614;54.356;10.100;2023-08-12T03:10:00;101443.91;;;18.63;92.32
58843;BME280;44614;54.356;10.100;2023-08-12T03:12:26;101388.16;;;18.26;92.26
58843;BME280;44614;54.356;10.100;2023-08-12T03:14:51;101464.50;;;18.62;92.77
58843;BME280;44614;54.356;10.100;2023-08-12T03:17:17;101461.94;;;18.61;92.46
58843;BME280;44614;54.356;10.100;2023-08-12T03:19:43;101471.41;;;18.60;92.50
58843;BME280;44614;54.356;10.100;2023-08-12T03:22:08;101465.00;;;18.59;92.69
58843;BME280;44614;54.356;10.100;2023-08-12T03:24:36;101454.13;;;18.58;92.52
58843;BME280;44614;54.356;10.100;2023-08-12T03:27:02;101456.06;;;18.57;92.64
58843;BME280;44614;54.356;10.100;2023-08-12T03:29:29;101463.59;;;18.57;92.43
58843;BME280;44614;54.356;10.100;2023-08-12T03:31:56;101451.63;;;18.56;92.74
58843;BME280;44614;54.356;10.100;2023-08-12T03:34:22;101447.41;;;18.54;92.51
58843;BME280;44614;54.356;10.100;2023-08-12T03:36:48;101452.72;;;18.55;92.77
58843;BME280;44614;54.356;10.100;2023-08-12T03:39:17;101447.69;;;18.52;93.30
58843;BME280;44614;54.356;10.100;2023-08-12T03:41:43;101445.47;;;18.54;93.23
58843;BME280;44614;54.356;10.100;2023-08-12T03:44:09;101436.56;;;18.52;93.55
58843;BME280;44614;54.356;10.100;2023-08-12T03:46:34;101442.97;;;18.52;93.67
58843;BME280;44614;54.356;10.100;2023-08-12T03:49:01;101441.00;;;18.53;93.51
58843;BME280;44614;54.356;10.100;2023-08-12T03:51:26;101444.91;;;18.52;93.38
58843;BME280;44614;54.356;10.100;2023-08-12T03:53:52;101439.34;;;18.52;93.89
58843;BME280;44614;54.356;10.100;2023-08-12T03:56:17;101434.25;;;18.44;94.12
58843;BME280;44614;54.356;10.100;2023-08-12T03:58:43;101437.91;;;18.49;94.09
58843;BME280;44614;54.356;10.100;2023-08-12T04:01:08;101432.63;;;18.48;95.06
58843;BME280;44614;54.356;10.100;2023-08-12T04:03:34;101434.25;;;18.44;96.18
58843;BME280;44614;54.356;10.100;2023-08-12T04:05:59;101438.38;;;18.41;96.47
58843;BME280;44614;54.356;10.100;2023-08-12T04:08:25;101408.72;;;18.25;96.38
58843;BME280;44614;54.356;10.100;2023-08-12T04:10:51;101433.09;;;18.40;96.79
58843;BME280;44614;54.356;10.100;2023-08-12T04:13:16;101434.16;;;18.39;96.72
58843;BME280;44614;54.356;10.100;2023-08-12T04:15:42;101425.28;;;18.37;97.82
58843;BME280;44614;54.356;10.100;2023-08-12T04:18:07;101400.59;;;18.18;97.52
58843;BME280;44614;54.356;10.100;2023-08-12T04:20:34;101410.78;;;18.35;97.72
58843;BME280;44614;54.356;10.100;2023-08-12T04:22:59;101386.69;;;18.18;98.98
58843;BME280;44614;54.356;10.100;2023-08-12T04:25:25;101411.25;;;18.26;99.36
58843;BME280;44614;54.356;10.100;2023-08-12T04:27:51;101400.63;;;18.23;99.88
58843;BME280;44614;54.356;10.100;2023-08-12T04:30:18;101400.97;;;18.27;99.19
58843;BME280;44614;54.356;10.100;2023-08-12T04:32:44;101391.22;;;18.24;99.69
58843;BME280;44614;54.356;10.100;2023-08-12T04:35:09;101397.09;;;18.28;99.77
58843;BME280;44614;54.356;10.100;2023-08-12T04:37:36;101393.72;;;18.26;100.00
58843;BME280;44614;54.356;10.100;2023-08-12T04:40:03;101394.56;;;18.26;100.00
58843;BME280;44614;54.356;10.100;2023-08-12T04:42:34;101389.78;;;18.22;100.00
58843;BME280;44614;54.356;10.100;2023-08-12T04:45:00;101378.41;;;18.23;100.00
58843;BME280;44614;54.356;10.100;2023-08-12T04:47:29;101367.28;;;18.23;100.00
58843;BME280;44614;54.356;10.100;2023-08-12T04:49:54;101361.72;;;18.23;100.00
58843;BME280;44614;54.356;10.100;2023-08-12T04:52:20;101360.38;;;18.26;100.00
58843;BME280;44614;54.356;10.100;2023-08-12T04:54:47;101359.84;;;18.29;100.00
58843;BME280;44614;54.356;10.100;2023-08-12T04:57:13;101346.41;;;18.21;100.00
58843;BME280;44614;54.356;10.100;2023-08-12T04:59:38;101360.84;;;18.18;100.00
58843;BME280;44614;54.356;10.100;2023-08-12T05:02:04;101369.81;;;18.25;100.00
58843;BME280;44614;54.356;10.100;2023-08-12T05:04:31;101367.28;;;18.23;100.00
58843;BME280;44614;54.356;10.100;2023-08-12T05:06:56;101370.66;;;18.25;100.00
58843;BME280;44614;54.356;10.100;2023-08-12T05:09:22;101362.88;;;18.27;100.00
58843;BME280;44614;54.356;10.100;2023-08-12T05:11:48;101357.06;;;18.29;100.00
58843;BME280;44614;54.356;10.100;2023-08-12T05:14:14;101368.75;;;18.31;100.00
58843;BME280;44614;54.356;10.100;2023-08-12T05:16:39;101359.06;;;18.34;100.00
58843;BME280;44614;54.356;10.100;2023-08-12T05:19:04;101357.38;;;18.33;100.00
58843;BME280;44614;54.356;10.100;2023-08-12T05:21:30;101355.13;;;18.30;100.00
58843;BME280;44614;54.356;10.100;2023-08-12T05:23:55;101362.34;;;18.31;100.00
58843;BME280;44614;54.356;10.100;2023-08-12T05:26:21;101369.63;;;18.32;100.00
58843;BME280;44614;54.356;10.100;2023-08-12T05:28:46;101358.22;;;18.33;100.00
58843;BME280;44614;54.356;10.100;2023-08-12T05:31:12;101364.34;;;18.35;100.00
58843;BME280;44614;54.356;10.100;2023-08-12T05:33:37;101355.72;;;18.32;100.00
58843;BME280;44614;54.356;10.100;2023-08-12T05:36:03;101362.47;;;18.41;100.00
58843;BME280;44614;54.356;10.100;2023-08-12T05:38:29;101364.44;;;18.45;100.00
58843;BME280;44614;54.356;10.100;2023-08-12T05:40:54;101367.56;;;18.49;100.00
58843;BME280;44614;54.356;10.100;2023-08-12T05:43:20;101362.56;;;18.51;100.00
58843;BME280;44614;54.356;10.100;2023-08-12T05:45:45;101365.09;;;18.52;100.00
58843;BME280;44614;54.356;10.100;2023-08-12T05:48:11;101374.03;;;18.55;100.00
58843;BME280;44614;54.356;10.100;2023-08-12T05:50:36;101379.03;;;18.58;100.00
58843;BME280;44614;54.356;10.100;2023-08-12T05:53:01;101394.88;;;18.57;100.00
58843;BME280;44614;54.356;10.100;2023-08-12T05:55:27;101392.94;;;18.58;100.00
58843;BME280;44614;54.356;10.100;2023-08-12T05:57:52;101389.31;;;18.57;100.00
58843;BME280;44614;54.356;10.100;2023-08-12T06:00:18;101396.31;;;18.60;100.00
58843;BME280;44614;54.356;10.100;2023-08-12T06:02:43;101400.50;;;18.62;100.00
58843;BME280;44614;54.356;10.100;2023-08-12T06:05:09;101400.50;;;18.62;100.00
58843;BME280;44614;54.356;10.100;2023-08-12T06:07:34;101404.97;;;18.63;100.00
58843;BME280;44614;54.356;10.100;2023-08-12T06:10:00;101388.75;;;18.55;100.00
58843;BME280;44614;54.356;10.100;2023-08-12T06:12:26;101395.78;;;18.63;100.00
58843;BME280;44614;54.356;10.100;2023-08-12T06:14:51;101387.75;;;18.66;100.00
58843;BME280;44614;54.356;10.100;2023-08-12T06:17:17;101392.75;;;18.69;100.00
58843;BME280;44614;54.356;10.100;2023-08-12T06:19:42;101392.03;;;18.74;100.00
58843;BME280;44614;54.356;10.100;2023-08-12T06:22:08;101389.56;;;18.78;100.00
58843;BME280;44614;54.356;10.100;2023-08-12T06:24:33;101392.66;;;18.81;100.00
58843;BME280;44614;54.356;10.100;2023-08-12T06:26:59;101383.75;;;18.84;100.00
58843;BME280;44614;54.356;10.100;2023-08-12T06:29:24;101383.50;;;18.86;100.00
58843;BME280;44614;54.356;10.100;2023-08-12T06:31:52;101386.84;;;18.88;100.00
58843;BME280;44614;54.356;10.100;2023-08-12T06:34:17;101363.44;;;18.84;100.00
58843;BME280;44614;54.356;10.100;2023-08-12T06:36:43;101368.75;;;18.85;100.00
58843;BME280;44614;54.356;10.100;2023-08-12T06:39:08;101376.81;;;18.87;100.00
58843;BME280;44614;54.356;10.100;2023-08-12T06:41:34;101377.34;;;18.84;100.00
58843;BME280;44614;54.356;10.100;2023-08-12T06:43:59;101365.38;;;18.83;100.00
58843;BME280;44614;54.356;10.100;2023-08-12T06:46:26;101368.97;;;18.79;100.00
58843;BME280;44614;54.356;10.100;2023-08-12T06:48:51;101359.72;;;18.73;100.00
58843;BME280;44614;54.356;10.100;2023-08-12T06:51:17;101366.72;;;18.75;100.00
58843;BME280;44614;54.356;10.100;2023-08-12T06:53:42;101361.47;;;18.79;100.00
58843;BME280;44614;54.356;10.100;2023-08-12T06:56:08;101364.88;;;18.86;100.00
58843;BME280;44614;54.356;10.100;2023-08-12T06:58:34;101364.66;;;18.93;100.00
58843;BME280;44614;54.356;10.100;2023-08-12T07:00:59;101370.25;;;18.98;100.00
58843;BME280;44614;54.356;10.100;2023-08-12T07:03:25;101376.34;;;19.00;100.00
58843;BME280;44614;54.356;10.100;2023-08-12T07:05:53;101362.19;;;19.02;100.00
58843;BME280;44614;54.356;10.100;2023-08-12T07:08:18;101361.91;;;19.03;100.00
58843;BME280;44614;54.356;10.100;2023-08-12T07:10:44;101368.31;;;19.04;100.00
58843;BME280;44614;54.356;10.100;2023-08-12T07:13:09;101374.75;;;19.04;100.00
58843;BME280;44614;54.356;10.100;2023-08-12T07:15:35;101373.84;;;18.98;100.00
58843;BME280;44614;54.356;10.100;2023-08-12T07:18:00;101353.13;;;18.79;100.00
58843;BME280;44614;54.356;10.100;2023-08-12T07:20:26;101386.34;;;18.96;100.00
58843;BME280;44614;54.356;10.100;2023-08-12T07:22:52;101369.66;;;18.96;100.00
58843;BME280;44614;54.356;10.100;2023-08-12T07:25:17;101348.13;;;18.81;100.00
58843;BME280;44614;54.356;10.100;2023-08-12T07:27:43;101370.25;;;18.98;100.00
58843;BME280;44614;54.356;10.100;2023-08-12T07:30:09;101375.28;;;19.01;100.00
58843;BME280;44614;54.356;10.100;2023-08-12T07:32:38;101374.16;;;19.02;100.00
58843;BME280;44614;54.356;10.100;2023-08-12T07:35:03;101358.59;;;19.06;100.00
58843;BME280;44614;54.356;10.100;2023-08-12T07:37:31;101372.00;;;19.09;100.00
58843;BME280;44614;54.356;10.100;2023-08-12T07:39:57;101376.44;;;19.10;100.00
58843;BME280;44614;54.356;10.100;2023-08-12T07:42:23;101372.59;;;19.16;100.00
58843;BME280;44614;54.356;10.100;2023-08-12T07:44:48;101373.41;;;19.12;100.00
58843;BME280;44614;54.356;10.100;2023-08-12T07:47:14;101374.28;;;19.17;100.00
58843;BME280;44614;54.356;10.100;2023-08-12T07:49:41;101379.56;;;19.19;100.00
58843;BME280;44614;54.356;10.100;2023-08-12T07:52:06;101377.06;;;19.17;100.00
58843;BME280;44614;54.356;10.100;2023-08-12T07:54:32;101366.72;;;19.13;100.00
58843;BME280;44614;54.356;10.100;2023-08-12T07:56:57;101363.66;;;19.09;100.00
58843;BME280;44614;54.356;10.100;2023-08-12T07:59:23;101357.56;;;19.17;100.00
58843;BME280;44614;54.356;10.100;2023-08-12T08:01:49;101354.50;;;19.19;100.00
58843;BME280;44614;54.356;10.100;2023-08-12T08:04:14;101348.72;;;19.26;100.00
58843;BME280;44614;54.356;10.100;2023-08-12T08:06:39;101352.91;;;19.28;100.00
58843;BME280;44614;54.356;10.100;2023-08-12T08:09:05;101349.81;;;19.24;100.00
58843;BME280;44614;54.356;10.100;2023-08-12T08:11:31;101340.88;;;19.22;100.00
58843;BME280;44614;54.356;10.100;2023-08-12T08:13:58;101343.13;;;19.20;100.00
58843;BME280;44614;54.356;10.100;2023-08-12T08:16:23;101336.41;;;19.16;100.00
58843;BME280;44614;54.356;10.100;2023-08-12T08:18:49;101329.72;;;19.17;100.00
58843;BME280;44614;54.356;10.100;2023-08-12T08:21:15;101327.22;;;19.16;100.00
58843;BME280;44614;54.356;10.100;2023-08-12T08:23:41;101325.28;;;19.16;100.00
58843;BME280;44614;54.356;10.100;2023-08-12T08:26:08;101318.59;;;19.17;100.00
58843;BME280;44614;54.356;10.100;2023-08-12T08:28:35;101323.56;;;19.15;100.00
58843;BME280;44614;54.356;10.100;2023-08-12T08:31:01;101283.97;;;18.98;100.00
58843;BME280;44614;54.356;10.100;2023-08-12T08:33:26;101296.34;;;19.22;100.00
58843;BME280;44614;54.356;10.100;2023-08-12T08:35:53;101298.91;;;19.34;100.00
58843;BME280;44614;54.356;10.100;2023-08-12T08:38:19;101287.53;;;19.36;100.00
58843;BME280;44614;54.356;10.100;2023-08-12T08:40:44;101266.31;;;19.30;100.00
58843;BME280;44614;54.356;10.100;2023-08-12T08:43:13;101302.63;;;19.50;100.00
58843;BME280;44614;54.356;10.100;2023-08-12T08:45:41;101303.78;;;19.59;100.00
58843;BME280;44614;54.356;10.100;2023-08-12T08:48:10;101270.63;;;19.58;100.00
58843;BME280;44614;54.356;10.100;2023-08-12T08:50:36;101303.06;;;19.84;100.00
58843;BME280;44614;54.356;10.100;2023-08-12T08:53:03;101304.19;;;19.93;100.00
58843;BME280;44614;54.356;10.100;2023-08-12T08:55:31;101298.38;;;20.00;100.00
58843;BME280;44614;54.356;10.100;2023-08-12T08:57:57;101294.75;;;20.10;100.00
58843;BME280;44614;54.356;10.100;2023-08-12T09:00:22;101294.50;;;20.11;100.00
58843;BME280;44614;54.356;10.100;2023-08-12T09:02:49;101300.63;;;20.13;100.00
58843;BME280;44614;54.356;10.100;2023-08-12T09:05:16;101300.91;;;20.22;100.00
58843;BME280;44614;54.356;10.100;2023-08-12T09:07:45;101282.22;;;20.17;100.00
58843;BME280;44614;54.356;10.100;2023-08-12T09:10:11;101305.13;;;20.40;100.00
58843;BME280;44614;54.356;10.100;2023-08-12T09:12:40;101308.19;;;20.49;100.00
58843;BME280;44614;54.356;10.100;2023-08-12T09:15:06;101299.03;;;20.53;100.00
58843;BME280;44614;54.356;10.100;2023-08-12T09:17:32;101293.44;;;20.63;100.00
58843;BME280;44614;54.356;10.100;2023-08-12T09:19:58;101290.91;;;20.82;100.00
58843;BME280;44614;54.356;10.100;2023-08-12T09:22:25;101288.88;;;21.13;100.00
58843;BME280;44614;54.356;10.100;2023-08-12T09:24:59;101294.38;;;21.54;100.00
58843;BME280;44614;54.356;10.100;2023-08-12T09:27:25;101294.19;;;21.95;100.00
58843;BME280;44614;54.356;10.100;2023-08-12T09:29:55;101283.34;;;22.33;100.00
58843;BME280;44614;54.356;10.100;2023-08-12T09:32:22;101289.31;;;22.55;100.00
58843;BME280;44614;54.356;10.100;2023-08-12T09:34:53;101290.16;;;22.56;100.00
58843;BME280;44614;54.356;10.100;2023-08-12T09:37:20;101298.50;;;22.61;100.00
58843;BME280;44614;54.356;10.100;2023-08-12T09:39:47;101285.91;;;22.63;100.00
58843;BME280;44614;54.356;10.100;2023-08-12T09:42:15;101286.53;;;22.84;100.00
58843;BME280;44614;54.356;10.100;2023-08-12T09:44:41;101291.97;;;23.05;100.00
58843;BME280;44614;54.356;10.100;2023-08-12T09:47:07;101291.50;;;23.22;100.00
58843;BME280;44614;54.356;10.100;2023-08-12T09:49:36;101289.88;;;23.16;99.63
58843;BME280;44614;54.356;10.100;2023-08-12T09:52:03;101282.69;;;23.09;100.00
58843;BME280;44614;54.356;10.100;2023-08-12T09:54:31;101289.00;;;23.20;100.00
58843;BME280;44614;54.356;10.100;2023-08-12T09:56:58;101283.66;;;23.24;100.00
58843;BME280;44614;54.356;10.100;2023-08-12T09:59:24;101277.91;;;23.34;99.65
58843;BME280;44614;54.356;10.100;2023-08-12T10:01:53;101267.75;;;23.38;98.78
58843;BME280;44614;54.356;10.100;2023-08-12T10:04:22;101276.25;;;23.33;97.97
58843;BME280;44614;54.356;10.100;2023-08-12T10:06:48;101268.50;;;23.25;99.30
58843;BME280;44614;54.356;10.100;2023-08-12T10:09:15;101274.69;;;23.22;99.41
58843;BME280;44614;54.356;10.100;2023-08-12T10:11:42;101276.09;;;23.19;99.40
58843;BME280;44614;54.356;10.100;2023-08-12T10:14:08;101268.00;;;23.18;99.13
58843;BME280;44614;54.356;10.100;2023-08-12T10:16:35;101266.34;;;23.17;99.27
58843;BME280;44614;54.356;10.100;2023-08-12T10:19:01;101267.94;;;23.23;97.50
58843;BME280;44614;54.356;10.100;2023-08-12T10:21:27;101269.75;;;23.14;98.27
58843;BME280;44614;54.356;10.100;2023-08-12T10:23:54;101278.78;;;23.05;99.06
58843;BME280;44614;54.356;10.100;2023-08-12T10:26:20;101268.84;;;22.94;99.11
58843;BME280;44614;54.356;10.100;2023-08-12T10:28:48;101282.84;;;22.94;99.42
58843;BME280;44614;54.356;10.100;2023-08-12T10:31:14;101268.84;;;22.89;99.28
58843;BME280;44614;54.356;10.100;2023-08-12T10:33:40;101273.59;;;22.94;99.23
58843;BME280;44614;54.356;10.100;2023-08-12T10:36:07;101275.03;;;22.91;98.75
58843;BME280;44614;54.356;10.100;2023-08-12T10:38:33;101263.28;;;22.84;98.83
58843;BME280;44614;54.356;10.100;2023-08-12T10:44:00;101242.28;;;22.57;98.94
58843;BME280;44614;54.356;10.100;2023-08-12T10:46:35;101261.03;;;22.86;98.99
58843;BME280;44614;54.356;10.100;2023-08-12T10:49:10;101255.84;;;23.03;98.08
58843;BME280;44614;54.356;10.100;2023-08-12T10:51:53;101240.75;;;22.99;97.21
58843;BME280;44614;54.356;10.100;2023-08-12T10:54:23;101253.22;;;23.12;97.52
58843;BME280;44614;54.356;10.100;2023-08-12T11:02:17;101243.09;;;23.16;96.01
58843;BME280;44614;54.356;10.100;2023-08-12T11:04:44;101245.19;;;23.05;97.04
58843;BME280;44614;54.356;10.100;2023-08-12T11:07:19;101252.38;;;23.11;96.88
58843;BME280;44614;54.356;10.100;2023-08-12T11:09:45;101248.91;;;23.20;96.89
58843;BME280;44614;54.356;10.100;2023-08-12T11:12:17;101238.81;;;23.24;95.88
58843;BME280;44614;54.356;10.100;2023-08-12T11:15:09;101237.72;;;23.20;95.03
58843;BME280;44614;54.356;10.100;2023-08-12T11:17:37;101234.03;;;23.00;96.47
58843;BME280;44614;54.356;10.100;2023-08-12T11:20:06;101223.72;;;22.96;96.63
58843;BME280;44614;54.356;10.100;2023-08-12T11:22:36;101231.84;;;22.97;96.57
58843;BME280;44614;54.356;10.100;2023-08-12T11:25:04;101223.75;;;22.91;96.66
58843;BME280;44614;54.356;10.100;2023-08-12T11:27:41;101208.84;;;22.71;96.20
58843;BME280;44614;54.356;10.100;2023-08-12T11:30:08;101223.72;;;22.67;97.35
58843;BME280;44614;54.356;10.100;2023-08-12T11:32:36;101220.78;;;22.53;97.73
58843;BME280;44614;54.356;10.100;2023-08-12T11:35:02;101225.03;;;22.45;98.35
58843;BME280;44614;54.356;10.100;2023-08-12T11:37:29;101222.25;;;22.45;97.94
58843;BME280;44614;54.356;10.100;2023-08-12T11:39:54;101216.94;;;22.44;97.88
58843;BME280;44614;54.356;10.100;2023-08-12T11:42:20;101210.25;;;22.39;98.15
58843;BME280;44614;54.356;10.100;2023-08-12T11:44:45;101231.28;;;22.37;98.24
58843;BME280;44614;54.356;10.100;2023-08-12T11:47:11;101229.34;;;22.32;98.19
58843;BME280;44614;54.356;10.100;2023-08-12T11:49:36;101231.09;;;22.23;98.92
58843;BME280;44614;54.356;10.100;2023-08-12T11:52:02;101221.69;;;22.04;99.94
58843;BME280;44614;54.356;10.100;2023-08-12T11:54:28;101221.22;;;21.92;100.00
58843;BME280;44614;54.356;10.100;2023-08-12T11:56:54;101227.69;;;21.87;100.00
58843;BME280;44614;54.356;10.100;2023-08-12T11:59:22;101229.41;;;21.78;100.00
58843;BME280;44614;54.356;10.100;2023-08-12T12:01:51;101135.88;;;21.15;100.00
58843;BME280;44614;54.356;10.100;2023-08-12T12:04:16;101218.91;;;21.64;100.00
58843;BME280;44614;54.356;10.100;2023-08-12T12:06:45;101219.47;;;21.61;100.00
58843;BME280;44614;54.356;10.100;2023-08-12T12:09:10;101194.94;;;21.48;100.00
58843;BME280;44614;54.356;10.100;2023-08-12T12:11:37;101212.53;;;21.54;100.00
58843;BME280;44614;54.356;10.100;2023-08-12T12:14:03;101202.47;;;21.48;100.00
58843;BME280;44614;54.356;10.100;2023-08-12T12:19:04;101203.09;;;21.45;100.00
58843;BME280;44614;54.356;10.100;2023-08-12T12:21:38;101193.03;;;21.38;100.00
58843;BME280;44614;54.356;10.100;2023-08-12T12:24:04;101191.66;;;21.31;100.00
58843;BME280;44614;54.356;10.100;2023-08-12T12:26:29;101186.41;;;21.19;100.00
58843;BME280;44614;54.356;10.100;2023-08-12T12:28:55;101185.56;;;21.13;100.00
58843;BME280;44614;54.356;10.100;2023-08-12T12:31:20;101190.06;;;21.09;100.00
58843;BME280;44614;54.356;10.100;2023-08-12T12:33:46;101190.66;;;21.06;100.00
58843;BME280;44614;54.356;10.100;2023-08-12T12:36:11;101169.19;;;20.91;100.00
58843;BME280;44614;54.356;10.100;2023-08-12T12:38:36;101189.78;;;21.06;100.00
58843;BME280;44614;54.356;10.100;2023-08-12T12:41:02;101191.22;;;21.03;100.00
58843;BME280;44614;54.356;10.100;2023-08-12T12:43:27;101183.44;;;20.95;100.00
58843;BME280;44614;54.356;10.100;2023-08-12T12:45:52;101174.50;;;20.93;100.00
58843;BME280;44614;54.356;10.100;2023-08-12T12:48:18;101183.16;;;20.91;100.00